createdAt,value
2023-05-16T00:00:31.433Z,99918.84
2023-05-16T00:03:27.886Z,99916.61
2023-05-16T00:06:06.104Z,99917.95
2023-05-16T00:08:58.671Z,99916.38
2023-05-16T00:11:37.243Z,99920.58
2023-05-16T00:14:15.316Z,99922.40
2023-05-16T00:16:51.495Z,99919.73
2023-05-16T00:19:27.158Z,99916.27
2023-05-16T00:22:05.250Z,99913.20
2023-05-16T00:24:40.841Z,99912.14
2023-05-16T00:27:18.841Z,99913.51
2023-05-16T00:29:56.158Z,99914.29
2023-05-16T00:32:35.999Z,99913.13
2023-05-16T00:35:14.377Z,99915.42
2023-05-16T00:37:50.549Z,99919.42
2023-05-16T00:40:27.113Z,99918.68
2023-05-16T00:43:04.573Z,99916.64
2023-05-16T00:45:40.714Z,99914.70
2023-05-16T00:48:18.836Z,99912.40
2023-05-16T00:50:55.532Z,99918.02
2023-05-16T00:53:35.505Z,99917.05
2023-05-16T00:56:12.988Z,99914.77
2023-05-16T00:58:48.697Z,99916.38
2023-05-16T01:01:25.879Z,99918.95
2023-05-16T01:04:04.447Z,99921.52
2023-05-16T01:06:42.193Z,99922.95
2023-05-16T01:09:21.010Z,99924.63
2023-05-16T01:12:05.495Z,99924.21
2023-05-16T01:14:51.002Z,99931.81
2023-05-16T01:17:34.494Z,99930.86
2023-05-16T01:20:21.755Z,99934.00
2023-05-16T01:23:14.726Z,99932.14
2023-05-16T01:26:06.465Z,99932.02
2023-05-16T01:28:43.482Z,99930.49
2023-05-16T01:31:19.915Z,99928.61
2023-05-16T01:33:54.857Z,99933.84
2023-05-16T01:36:38.425Z,99936.30
2023-05-16T01:39:23.394Z,99938.30
2023-05-16T01:42:08.559Z,99936.59
2023-05-16T01:44:49.794Z,99939.59
2023-05-16T01:47:28.045Z,99941.23
2023-05-16T01:50:10.311Z,99940.09
2023-05-16T01:52:49.338Z,99943.77
2023-05-16T01:55:32.583Z,99945.48
2023-05-16T01:58:10.346Z,99949.89
2023-05-16T02:00:49.077Z,99951.80
2023-05-16T02:03:25.851Z,99953.09
2023-05-16T02:06:01.772Z,99954.63
2023-05-16T02:08:36.717Z,99956.52
2023-05-16T02:11:14.786Z,99959.70
2023-05-16T02:13:50.169Z,99959.98
2023-05-16T02:16:29.285Z,99963.14
2023-05-16T02:19:05.218Z,99970.61
2023-05-16T02:21:39.984Z,99972.29
2023-05-16T02:24:16.013Z,99971.79
2023-05-16T02:26:51.002Z,99971.27
2023-05-16T02:29:26.928Z,99977.41
2023-05-16T02:32:02.748Z,99980.10
2023-05-16T02:34:39.538Z,99978.83
2023-05-16T02:37:14.484Z,99981.01
2023-05-16T02:39:49.336Z,99983.97
2023-05-16T02:42:24.811Z,99983.45
2023-05-16T02:45:02.833Z,99986.27
2023-05-16T02:47:38.619Z,99992.23
2023-05-16T02:50:16.389Z,99993.59
2023-05-16T02:52:52.877Z,99996.75
2023-05-16T02:55:30.123Z,100003.81
2023-05-16T02:58:05.266Z,100003.70
2023-05-16T03:00:42.077Z,100004.24
2023-05-16T03:03:17.219Z,100007.66
2023-05-16T03:05:52.923Z,100013.99
2023-05-16T03:08:29.040Z,100018.73
2023-05-16T03:11:03.423Z,100022.08
2023-05-16T03:13:38.752Z,100023.85
2023-05-16T03:16:27.043Z,100024.86
2023-05-16T03:19:13.065Z,100023.57
2023-05-16T03:21:49.479Z,100030.02
2023-05-16T03:24:29.621Z,100040.40
2023-05-16T03:27:06.624Z,100041.52
2023-05-16T03:29:55.776Z,100048.39
2023-05-16T03:32:34.132Z,100051.17
2023-05-16T03:35:17.050Z,100056.47
2023-05-16T03:37:53.808Z,100062.97
2023-05-16T03:40:30.515Z,100062.40
2023-05-16T03:43:06.200Z,100059.30
2023-05-16T03:45:45.059Z,100059.61
2023-05-16T03:48:21.634Z,100057.23
2023-05-16T03:51:02.568Z,100058.23
2023-05-16T03:53:38.154Z,100059.33
2023-05-16T03:56:17.965Z,100061.27
2023-05-16T03:58:55.153Z,100066.46
2023-05-16T04:01:32.897Z,100078.07
2023-05-16T04:04:10.902Z,100083.13
2023-05-16T04:06:47.461Z,100079.84
2023-05-16T04:09:24.898Z,100079.64
2023-05-16T04:12:03.756Z,100084.29
2023-05-16T04:14:39.929Z,100092.51
2023-05-16T04:17:16.346Z,100100.18
2023-05-16T04:19:51.697Z,100105.27
2023-05-16T04:22:28.191Z,100114.95
2023-05-16T04:25:05.483Z,100120.70
2023-05-16T04:27:42.742Z,100120.73
2023-05-16T04:30:20.785Z,100121.94
2023-05-16T04:32:57.471Z,100128.61
2023-05-16T04:35:41.335Z,100135.05
2023-05-16T04:38:18.399Z,100142.09
2023-05-16T04:40:56.050Z,100147.30
2023-05-16T04:43:33.260Z,100146.60
2023-05-16T04:46:12.841Z,100154.34
2023-05-16T04:48:49.250Z,100155.95
2023-05-16T04:51:26.125Z,100164.15
2023-05-16T04:54:03.047Z,100167.27
2023-05-16T04:56:43.063Z,100174.11
2023-05-16T04:59:20.347Z,100179.30
2023-05-16T05:01:56.380Z,100187.45
2023-05-16T05:04:35.478Z,100194.28
2023-05-16T05:07:12.048Z,100201.96
2023-05-16T05:09:48.823Z,100205.06
2023-05-16T05:12:23.776Z,100208.71
2023-05-16T05:15:09.142Z,100209.91
2023-05-16T05:17:48.873Z,100216.92
2023-05-16T05:20:26.353Z,100226.96
2023-05-16T05:23:06.556Z,100237.23
2023-05-16T05:25:46.990Z,100233.20
2023-05-16T05:28:24.478Z,100239.66
2023-05-16T05:31:07.703Z,100239.11
2023-05-16T05:33:43.598Z,100239.92
2023-05-16T05:36:25.778Z,100247.88
2023-05-16T05:39:07.077Z,100252.98
2023-05-16T05:41:47.776Z,100258.80
2023-05-16T05:44:24.023Z,100258.42
2023-05-16T05:46:59.589Z,100259.92
2023-05-16T05:49:38.427Z,100264.83
2023-05-16T05:52:14.339Z,100264.23
2023-05-16T05:54:50.934Z,100262.88
2023-05-16T05:57:26.926Z,100265.46
2023-05-16T06:00:03.645Z,100273.98
2023-05-16T06:03:06.922Z,100281.16
2023-05-16T06:05:44.025Z,100279.90
2023-05-16T06:08:24.170Z,100278.67
2023-05-16T06:11:32.633Z,100278.15
2023-05-16T06:14:07.597Z,100282.02
2023-05-16T06:16:46.210Z,100281.74
2023-05-16T06:19:23.689Z,100273.95
2023-05-16T06:21:58.135Z,100275.46
2023-05-16T06:24:37.906Z,100281.56
2023-05-16T06:27:14.885Z,100288.70
2023-05-16T06:29:50.167Z,100295.09
2023-05-16T06:32:29.645Z,100299.61
2023-05-16T06:35:06.913Z,100306.86
2023-05-16T06:37:43.119Z,100312.74
2023-05-16T06:40:17.877Z,100319.17
2023-05-16T06:42:59.268Z,100320.52
2023-05-16T06:45:34.808Z,100327.96
2023-05-16T06:48:13.693Z,100331.50
2023-05-16T06:50:53.344Z,100333.21
2023-05-16T06:53:29.587Z,100341.84
2023-05-16T06:56:06.860Z,100351.61
2023-05-16T06:58:44.379Z,100356.28
2023-05-16T07:01:22.026Z,100365.50
2023-05-16T07:03:59.370Z,100364.59
2023-05-16T07:06:35.575Z,100365.48
2023-05-16T07:09:12.162Z,100364.66
2023-05-16T07:11:46.202Z,100366.19
2023-05-16T07:14:24.552Z,100372.96
2023-05-16T07:17:00.443Z,100380.80
2023-05-16T07:19:37.356Z,100387.55
2023-05-16T07:22:13.336Z,100387.45
2023-05-16T07:24:49.465Z,100394.55
2023-05-16T07:27:26.536Z,100400.34
2023-05-16T07:33:29.690Z,100417.88
2023-05-16T07:38:53.912Z,100428.98
2023-05-16T07:41:28.972Z,100429.97
2023-05-16T07:44:05.442Z,100440.52
2023-05-16T07:46:40.858Z,100442.82
2023-05-16T07:49:19.951Z,100449.69
2023-05-16T07:52:05.606Z,100453.73
2023-05-16T07:54:43.708Z,100452.92
2023-05-16T07:57:19.563Z,100452.64
2023-05-16T07:59:58.751Z,100457.00
2023-05-16T08:02:42.260Z,100460.89
2023-05-16T08:05:18.742Z,100462.52
2023-05-16T08:07:59.108Z,100462.88
2023-05-16T08:10:43.303Z,100461.63
2023-05-16T08:13:21.691Z,100464.23
2023-05-16T08:16:02.308Z,100466.39
2023-05-16T08:18:40.564Z,100468.88
2023-05-16T08:21:38.862Z,100465.06
2023-05-16T08:24:18.434Z,100461.17
2023-05-16T08:27:13.621Z,100461.80
2023-05-16T08:29:46.428Z,100461.49
2023-05-16T08:32:24.574Z,100461.68
2023-05-16T08:35:03.196Z,100465.98
2023-05-16T08:37:40.487Z,100473.21
2023-05-16T08:40:16.053Z,100473.45
2023-05-16T08:43:10.981Z,100473.31
2023-05-16T08:45:50.157Z,100481.92
2023-05-16T08:48:27.900Z,100480.20
2023-05-16T08:51:02.447Z,100476.13
2023-05-16T08:53:49.745Z,100474.92
2023-05-16T08:56:29.389Z,100477.73
2023-05-16T08:59:06.374Z,100479.84
2023-05-16T09:01:42.910Z,100478.61
2023-05-16T09:04:25.786Z,100477.11
2023-05-16T09:07:02.365Z,100482.57
2023-05-16T09:09:39.227Z,100480.83
2023-05-16T09:12:19.150Z,100476.38
2023-05-16T09:14:59.382Z,100475.23
2023-05-16T09:17:45.153Z,100479.05
2023-05-16T09:20:20.962Z,100479.48
2023-05-16T09:22:58.162Z,100475.98
2023-05-16T09:25:56.445Z,100482.23
2023-05-16T09:28:31.708Z,100490.95
2023-05-16T09:31:27.215Z,100502.26
2023-05-16T09:34:39.183Z,100514.51
2023-05-16T09:37:19.995Z,100529.52
2023-05-16T09:39:55.785Z,100534.02
2023-05-16T09:42:29.301Z,100536.04
2023-05-16T09:45:04.498Z,100530.58
2023-05-16T09:47:45.970Z,100525.13
2023-05-16T09:50:20.916Z,100520.02
2023-05-16T09:53:01.756Z,100514.67
2023-05-16T09:56:15.443Z,100518.48
2023-05-16T09:59:28.213Z,100517.08
2023-05-16T10:02:02.231Z,100521.95
2023-05-16T10:04:40.930Z,100524.81
2023-05-16T10:07:17.998Z,100528.00
2023-05-16T10:10:02.593Z,100532.60
2023-05-16T10:16:02.091Z,100531.21
2023-05-16T10:18:40.829Z,100545.45
2023-05-16T10:21:37.507Z,100549.14
2023-05-16T10:24:28.948Z,100570.20
2023-05-16T10:27:12.087Z,100571.90
2023-05-16T10:29:54.852Z,100562.95
2023-05-16T10:32:50.421Z,100565.86
2023-05-16T10:35:24.791Z,100567.05
2023-05-16T10:38:06.567Z,100572.30
2023-05-16T10:40:53.328Z,100567.10
2023-05-16T10:43:31.624Z,100565.56
2023-05-16T10:46:16.672Z,100564.89
2023-05-16T10:48:58.845Z,100561.64
2023-05-16T10:51:42.485Z,100562.10
2023-05-16T10:54:18.773Z,100568.34
2023-05-16T10:57:05.977Z,100572.61
2023-05-16T10:59:47.053Z,100572.38
2023-05-16T11:02:29.907Z,100567.31
2023-05-16T11:05:09.268Z,100570.52
2023-05-16T11:11:29.384Z,100575.41
2023-05-16T11:14:11.522Z,100583.80
2023-05-16T11:16:55.626Z,100589.65
2023-05-16T11:19:42.673Z,100596.40
2023-05-16T11:22:32.041Z,100593.45
2023-05-16T11:25:09.884Z,100593.92
2023-05-16T11:27:50.322Z,100595.70
2023-05-16T11:30:29.037Z,100603.27
2023-05-16T11:33:04.529Z,100605.88
2023-05-16T11:36:14.553Z,100608.86
2023-05-16T11:39:08.060Z,100613.92
2023-05-16T11:41:47.785Z,100610.69
2023-05-16T11:44:25.022Z,100612.31
2023-05-16T11:47:16.833Z,100616.33
2023-05-16T11:49:52.785Z,100622.73
2023-05-16T11:52:37.744Z,100626.11
2023-05-16T11:55:36.829Z,100629.19
2023-05-16T11:58:18.467Z,100635.11
2023-05-16T12:00:55.080Z,100638.14
2023-05-16T12:03:33.981Z,100643.19
2023-05-16T12:06:13.581Z,100645.04
2023-05-16T12:08:55.803Z,100648.39
2023-05-16T12:11:33.060Z,100649.27
2023-05-16T12:14:12.675Z,100651.64
2023-05-16T12:16:50.857Z,100652.16
2023-05-16T12:19:32.463Z,100649.12
2023-05-16T12:22:18.084Z,100653.52
2023-05-16T12:24:55.424Z,100657.25
2023-05-16T12:27:41.080Z,100655.09
2023-05-16T12:30:21.027Z,100657.69
2023-05-16T12:33:07.669Z,100660.21
2023-05-16T12:35:46.987Z,100669.18
2023-05-16T12:38:23.925Z,100671.88
2023-05-16T12:41:03.470Z,100674.48
2023-05-16T12:43:43.007Z,100680.08
2023-05-16T12:46:24.227Z,100680.73
2023-05-16T12:49:12.250Z,100680.14
2023-05-16T12:51:55.962Z,100679.80
2023-05-16T12:54:32.276Z,100679.91
2023-05-16T12:57:10.515Z,100685.38
2023-05-16T12:59:47.261Z,100685.27
2023-05-16T13:02:23.883Z,100688.41
2023-05-16T13:05:00.403Z,100688.86
2023-05-16T13:07:35.785Z,100689.34
2023-05-16T13:10:26.302Z,100687.48
2023-05-16T13:13:10.117Z,100685.35
2023-05-16T13:15:49.540Z,100687.06
2023-05-16T13:18:28.264Z,100686.35
2023-05-16T13:21:05.695Z,100687.02
2023-05-16T13:23:44.175Z,100682.61
2023-05-16T13:26:24.264Z,100682.25
2023-05-16T13:29:00.431Z,100682.54
2023-05-16T13:31:37.305Z,100685.12
2023-05-16T13:34:16.960Z,100688.27
2023-05-16T13:37:09.504Z,100696.71
2023-05-16T13:39:47.723Z,100700.85
2023-05-16T13:42:27.150Z,100703.46
2023-05-16T13:45:04.974Z,100700.27
2023-05-16T13:47:48.075Z,100698.59
2023-05-16T13:50:33.351Z,100695.95
2023-05-16T13:53:12.819Z,100693.94
2023-05-16T13:55:51.051Z,100693.04
2023-05-16T13:58:27.451Z,100690.20
2023-05-16T14:01:13.410Z,100688.34
2023-05-16T14:03:56.341Z,100685.70
2023-05-16T14:06:30.517Z,100683.02
2023-05-16T14:09:08.876Z,100684.84
2023-05-16T14:11:46.661Z,100685.45
2023-05-16T14:14:24.420Z,100688.42
2023-05-16T14:17:04.812Z,100686.53
2023-05-16T14:19:47.377Z,100687.09
2023-05-16T14:22:27.149Z,100686.63
2023-05-16T14:25:15.170Z,100686.45
2023-05-16T14:27:51.999Z,100683.89
2023-05-16T14:30:32.450Z,100687.15
2023-05-16T14:33:09.820Z,100688.86
2023-05-16T14:36:05.272Z,100687.80
2023-05-16T14:38:46.167Z,100689.22
2023-05-16T14:41:27.727Z,100688.34
2023-05-16T14:44:02.896Z,100688.50
2023-05-16T14:46:39.778Z,100691.32
2023-05-16T14:49:14.722Z,100691.17
2023-05-16T14:51:52.073Z,100692.54
2023-05-16T14:54:34.836Z,100696.17
2023-05-16T14:57:13.716Z,100695.84
2023-05-16T14:59:51.010Z,100696.55
2023-05-16T15:02:37.866Z,100701.63
2023-05-16T15:05:16.588Z,100704.77
2023-05-16T15:07:59.870Z,100703.02
2023-05-16T15:10:44.443Z,100704.84
2023-05-16T15:13:28.864Z,100707.30
2023-05-16T15:16:09.027Z,100711.11
2023-05-16T15:18:46.996Z,100712.81
2023-05-16T15:21:27.968Z,100715.08
2023-05-16T15:24:05.865Z,100718.52
2023-05-16T15:26:45.819Z,100718.48
2023-05-16T15:29:33.166Z,100717.97
2023-05-16T15:32:14.344Z,100714.42
2023-05-16T15:34:55.307Z,100711.86
2023-05-16T15:37:36.584Z,100718.71
2023-05-16T15:40:24.999Z,100722.63
2023-05-16T15:43:07.331Z,100726.08
2023-05-16T15:45:45.882Z,100725.81
2023-05-16T15:48:25.200Z,100728.05
2023-05-16T15:51:02.038Z,100721.51
2023-05-16T15:53:42.171Z,100718.96
2023-05-16T15:56:16.958Z,100722.82
2023-05-16T15:59:03.037Z,100727.69
2023-05-16T16:01:38.312Z,100726.58
2023-05-16T16:04:32.632Z,100731.76
2023-05-16T16:07:08.324Z,100731.92
2023-05-16T16:09:49.407Z,100733.60
2023-05-16T16:12:25.329Z,100735.13
2023-05-16T16:15:07.400Z,100734.13
2023-05-16T16:17:45.026Z,100730.94
2023-05-16T16:20:25.970Z,100732.95
2023-05-16T16:23:06.265Z,100734.67
2023-05-16T16:25:44.035Z,100741.36
2023-05-16T16:28:26.504Z,100739.23
2023-05-16T16:31:05.824Z,100739.26
2023-05-16T16:33:44.146Z,100739.77
2023-05-16T16:36:21.509Z,100741.84
2023-05-16T16:38:58.051Z,100744.36
2023-05-16T16:41:35.858Z,100747.79
2023-05-16T16:44:13.282Z,100749.30
2023-05-16T16:46:51.066Z,100752.28
2023-05-16T16:49:26.808Z,100754.36
2023-05-16T16:52:04.836Z,100755.25
2023-05-16T16:54:40.804Z,100761.41
2023-05-16T16:57:17.403Z,100764.93
2023-05-16T16:59:55.420Z,100768.91
2023-05-16T17:02:34.938Z,100773.96
2023-05-16T17:05:14.583Z,100776.45
2023-05-16T17:07:53.161Z,100777.83
2023-05-16T17:10:30.422Z,100775.30
2023-05-16T17:13:10.336Z,100770.09
2023-05-16T17:15:48.302Z,100773.44
2023-05-16T17:18:23.412Z,100773.84
2023-05-16T17:21:02.360Z,100775.85
2023-05-16T17:23:42.493Z,100782.27
2023-05-16T17:26:24.500Z,100785.05
2023-05-16T17:29:06.038Z,100784.82
2023-05-16T17:31:44.341Z,100787.61
2023-05-16T17:34:22.428Z,100793.30
2023-05-16T17:37:00.049Z,100794.88
2023-05-16T17:39:36.919Z,100804.24
2023-05-16T17:42:17.472Z,100811.64
2023-05-16T17:44:53.042Z,100815.01
2023-05-16T17:47:29.659Z,100815.86
2023-05-16T17:50:09.433Z,100822.97
2023-05-16T17:52:51.927Z,100825.77
2023-05-16T17:55:29.964Z,100823.52
2023-05-16T17:58:13.359Z,100825.63
2023-05-16T18:00:52.750Z,100826.02
2023-05-16T18:03:36.452Z,100832.27
2023-05-16T18:06:18.739Z,100830.02
2023-05-16T18:08:52.635Z,100832.46
2023-05-16T18:11:35.884Z,100833.50
2023-05-16T18:14:30.423Z,100836.54
2023-05-16T18:17:09.107Z,100844.08
2023-05-16T18:19:48.744Z,100848.23
2023-05-16T18:22:32.002Z,100852.73
2023-05-16T18:25:16.883Z,100856.13
2023-05-16T18:28:04.798Z,100856.29
2023-05-16T18:30:40.459Z,100859.87
2023-05-16T18:33:16.417Z,100860.73
2023-05-16T18:36:10.533Z,100864.02
2023-05-16T18:39:04.250Z,100867.42
2023-05-16T18:41:49.074Z,100873.67
2023-05-16T18:44:46.733Z,100875.03
2023-05-16T18:47:42.106Z,100875.21
2023-05-16T18:50:23.836Z,100877.47
2023-05-16T18:53:00.678Z,100883.30
2023-05-16T18:55:42.158Z,100891.23
2023-05-16T18:58:21.440Z,100902.11
2023-05-16T19:00:58.643Z,100907.84
2023-05-16T19:03:35.442Z,100910.60
2023-05-16T19:06:12.000Z,100914.79
2023-05-16T19:08:51.597Z,100921.44
2023-05-16T19:11:28.112Z,100921.65
2023-05-16T19:14:05.226Z,100917.60
2023-05-16T19:16:42.404Z,100922.13
2023-05-16T19:19:18.367Z,100922.56
2023-05-16T19:21:53.328Z,100927.17
2023-05-16T19:24:30.577Z,100925.70
2023-05-16T19:27:07.659Z,100929.72
2023-05-16T19:29:43.109Z,100927.79
2023-05-16T19:32:20.324Z,100932.66
2023-05-16T19:34:56.187Z,100931.92
2023-05-16T19:37:33.902Z,100935.75
2023-05-16T19:40:17.239Z,100942.04
2023-05-16T19:42:58.610Z,100945.52
2023-05-16T19:45:34.802Z,100948.84
2023-05-16T19:48:13.426Z,100950.73
2023-05-16T19:50:58.651Z,100952.94
2023-05-16T19:53:36.624Z,100960.11
2023-05-16T19:56:15.319Z,100958.18
2023-05-16T19:58:52.080Z,100961.36
2023-05-16T20:01:36.047Z,100962.78
2023-05-16T20:04:13.345Z,100965.90
2023-05-16T20:06:48.409Z,100962.39
2023-05-16T20:09:30.132Z,100965.45
2023-05-16T20:12:08.893Z,100963.81
2023-05-16T20:14:45.278Z,100967.25
2023-05-16T20:17:22.638Z,100967.74
2023-05-16T20:20:17.376Z,100968.90
2023-05-16T20:22:53.693Z,100972.04
2023-05-16T20:25:29.223Z,100969.42
2023-05-16T20:28:06.311Z,100967.07
2023-05-16T20:30:44.792Z,100965.30
2023-05-16T20:33:27.761Z,100969.46
2023-05-16T20:36:03.777Z,100970.80
2023-05-16T20:38:39.034Z,100972.77
2023-05-16T20:41:22.631Z,100977.56
2023-05-16T20:44:09.198Z,100980.36
2023-05-16T20:47:12.641Z,100981.29
2023-05-16T20:49:50.004Z,100980.10
2023-05-16T20:52:28.074Z,100987.27
2023-05-16T20:55:12.103Z,100992.66
2023-05-16T20:57:49.925Z,100990.85
2023-05-16T21:00:33.751Z,100994.10
2023-05-16T21:03:19.340Z,100994.73
2023-05-16T21:06:05.562Z,100993.80
2023-05-16T21:08:52.698Z,100996.03
2023-05-16T21:11:27.868Z,100999.39
2023-05-16T21:14:07.661Z,101002.50
2023-05-16T21:16:46.681Z,101001.22
2023-05-16T21:19:27.166Z,101002.63
2023-05-16T21:22:06.904Z,101005.56
2023-05-16T21:24:46.666Z,101006.21
2023-05-16T21:27:21.560Z,101008.23
2023-05-16T21:29:57.242Z,101013.13
2023-05-16T21:32:32.722Z,101013.75
2023-05-16T21:35:09.560Z,101008.86
2023-05-16T21:37:45.121Z,101016.30
2023-05-16T21:40:25.143Z,101016.21
2023-05-16T21:43:01.421Z,101014.70
2023-05-16T21:45:40.518Z,101019.73
2023-05-16T21:48:17.978Z,101018.15
2023-05-16T21:50:55.404Z,101021.14
2023-05-16T21:53:37.767Z,101023.91
2023-05-16T21:56:16.683Z,101024.20
2023-05-16T21:58:51.344Z,101031.00
2023-05-16T22:01:32.299Z,101028.83
2023-05-16T22:04:09.526Z,101035.63
2023-05-16T22:06:44.329Z,101029.94
2023-05-16T22:09:18.775Z,101032.27
2023-05-16T22:11:55.725Z,101032.18
2023-05-16T22:14:32.213Z,101034.69
2023-05-16T22:17:12.029Z,101037.43
2023-05-16T22:20:04.975Z,101038.09
2023-05-16T22:23:01.233Z,101037.39
2023-05-16T22:25:48.761Z,101042.56
2023-05-16T22:28:29.924Z,101043.23
2023-05-16T22:31:07.465Z,101049.33
2023-05-16T22:33:46.011Z,101054.40
2023-05-16T22:36:33.999Z,101055.89
2023-05-16T22:39:12.998Z,101053.27
2023-05-16T22:41:57.175Z,101051.32
2023-05-16T22:44:51.063Z,101050.39
2023-05-16T22:47:35.253Z,101053.84
2023-05-16T22:50:19.868Z,101049.69
2023-05-16T22:53:15.239Z,101050.90
2023-05-16T22:55:54.418Z,101056.53
2023-05-16T22:58:32.665Z,101056.04
2023-05-16T23:01:19.893Z,101054.34
2023-05-16T23:04:06.775Z,101050.73
2023-05-16T23:06:46.344Z,101048.33
2023-05-16T23:09:31.340Z,101049.88
2023-05-16T23:12:18.965Z,101051.39
2023-05-16T23:14:56.049Z,101051.70
2023-05-16T23:17:35.065Z,101053.52
2023-05-16T23:20:09.242Z,101055.88
2023-05-16T23:22:42.119Z,101051.85
2023-05-16T23:25:17.001Z,101051.77
2023-05-16T23:27:58.147Z,101051.52
2023-05-16T23:30:36.842Z,101050.04
2023-05-16T23:33:11.685Z,101049.20
2023-05-16T23:35:51.145Z,101049.63
2023-05-16T23:38:34.778Z,101046.63
2023-05-16T23:41:23.942Z,101042.46
2023-05-16T23:44:01.818Z,101045.14
2023-05-16T23:46:51.343Z,101047.73
2023-05-16T23:49:35.436Z,101051.67
2023-05-16T23:52:16.352Z,101050.20
2023-05-16T23:54:55.654Z,101052.42
2023-05-16T23:57:36.224Z,101056.52
